Time;durP1;ratioP1;P1;durP2;ratioP2;P2;SDS_P1;SDS_P2;PMS_P1;PMS_P2;Temp;Humidity;BMP_temperature;BMP_pressure;BME280_temperature;BME280_humidity;BME280_pressure;Samples;Min_cycle;Max_cycle;Signal;HPM_P1;HPM_P2
2021/08/29 00:02:19;;;;;;;6.45;3.10;;;15.10;99.90;;;;;;5028135;28;20288;-67
2021/08/29 00:04:45;;;;;;;7.45;3.58;;;15.10;99.90;;;;;;5008230;28;20487;-67
2021/08/29 00:07:11;;;;;;;5.97;3.35;;;15.10;99.90;;;;;;5027509;28;20083;-67
2021/08/29 00:09:37;;;;;;;4.07;2.70;;;15.10;99.90;;;;;;5026120;28;20153;-67
2021/08/29 00:12:03;;;;;;;4.68;3.30;;;15.10;99.90;;;;;;5025916;28;20720;-67
2021/08/29 00:14:29;;;;;;;8.02;3.08;;;15.10;99.90;;;;;;5009595;28;20487;-67
2021/08/29 00:16:54;;;;;;;4.57;3.08;;;15.10;99.90;;;;;;5024670;28;20030;-67
2021/08/29 00:19:20;;;;;;;4.05;2.85;;;15.10;99.90;;;;;;5026312;28;20479;-67
2021/08/29 00:21:45;;;;;;;5.60;3.15;;;15.10;99.90;;;;;;5026586;28;20163;-68
2021/08/29 00:24:11;;;;;;;5.32;3.03;;;15.10;99.90;;;;;;5009483;28;20082;-67
2021/08/29 00:26:37;;;;;;;3.83;2.80;;;15.10;99.90;;;;;;5027496;28;20029;-66
2021/08/29 00:29:03;;;;;;;4.03;2.92;;;15.10;99.90;;;;;;5025667;28;20060;-67
2021/08/29 00:31:29;;;;;;;4.72;3.10;;;15.10;99.90;;;;;;5007116;28;20037;-67
2021/08/29 00:33:55;;;;;;;4.68;2.50;;;15.10;99.90;;;;;;5027607;28;20026;-66
2021/08/29 00:36:21;;;;;;;3.95;2.70;;;15.10;99.90;;;;;;5027944;28;20025;-67
2021/08/29 00:38:46;;;;;;;5.63;2.88;;;15.20;99.90;;;;;;5031787;28;20409;-66
2021/08/29 00:41:12;;;;;;;5.32;2.97;;;15.20;99.90;;;;;;5030668;28;20022;-67
2021/08/29 00:43:39;;;;;;;5.82;2.67;;;15.10;99.90;;;;;;5030477;28;20033;-67
2021/08/29 00:46:06;;;;;;;6.10;2.60;;;15.10;99.90;;;;;;5030433;28;20033;-66
2021/08/29 00:48:32;;;;;;;4.30;2.22;;;15.10;99.90;;;;;;5027907;28;20108;-66
2021/08/29 00:50:58;;;;;;;7.03;3.45;;;15.10;99.90;;;;;;5031925;28;20764;-67
2021/08/29 00:53:24;;;;;;;4.97;2.63;;;15.10;99.90;;;;;;5031351;28;20540;-67
2021/08/29 00:55:51;;;;;;;5.07;2.85;;;15.10;99.90;;;;;;5030587;28;20029;-66
2021/08/29 00:58:22;;;;;;;4.28;2.80;;;15.10;99.90;;;;;;5014272;28;20488;-67
2021/08/29 01:00:48;;;;;;;6.00;3.05;;;15.10;99.90;;;;;;5036406;28;20442;-67
2021/08/29 01:03:23;;;;;;;4.03;2.85;;;15.00;99.90;;;;;;5031221;28;20519;-67
2021/08/29 01:06:04;;;;;;;5.43;3.10;;;15.00;99.90;;;;;;5012972;28;20037;-67
2021/08/29 01:08:37;;;;;;;3.53;2.58;;;15.10;99.90;;;;;;5029022;28;20387;-66
2021/08/29 01:11:15;;;;;;;4.93;2.65;;;15.10;99.90;;;;;;5029622;28;20108;-66
2021/08/29 01:13:57;;;;;;;4.15;2.90;;;15.10;99.90;;;;;;5029474;28;20129;-66
2021/08/29 01:16:23;;;;;;;7.85;3.38;;;15.10;99.90;;;;;;5032097;28;20075;-66
2021/08/29 01:18:53;;;;;;;4.53;2.72;;;15.10;99.90;;;;;;5030284;28;20403;-65
2021/08/29 01:21:21;;;;;;;7.20;3.80;;;15.10;99.90;;;;;;5031856;28;20159;-66
2021/08/29 01:23:53;;;;;;;4.18;3.03;;;15.10;99.90;;;;;;5030290;28;20087;-66
2021/08/29 01:26:45;;;;;;;7.03;3.15;;;15.10;99.90;;;;;;5027863;28;20076;-67
2021/08/29 01:29:13;;;;;;;5.57;3.45;;;15.10;99.90;;;;;;5012097;28;20026;-67
2021/08/29 01:31:41;;;;;;;6.95;3.47;;;15.10;99.90;;;;;;5029868;28;20026;-66
2021/08/29 01:34:10;;;;;;;6.28;3.33;;;15.10;99.90;;;;;;5029307;28;20025;-66
2021/08/29 01:36:42;;;;;;;5.18;3.03;;;15.10;99.90;;;;;;5029731;28;20495;-67
2021/08/29 01:39:09;;;;;;;5.53;3.78;;;15.10;99.90;;;;;;5028652;28;20045;-67
2021/08/29 01:41:37;;;;;;;4.30;3.17;;;15.10;99.90;;;;;;5027703;28;20028;-67
2021/08/29 01:44:04;;;;;;;5.70;3.45;;;15.10;99.90;;;;;;5028316;28;20021;-66
2021/08/29 01:46:32;;;;;;;5.28;3.20;;;15.00;99.90;;;;;;5029380;28;20434;-67
2021/08/29 01:48:58;;;;;;;6.50;3.25;;;15.00;99.90;;;;;;5028385;28;20030;-66
2021/08/29 01:51:23;;;;;;;6.70;3.38;;;15.00;99.90;;;;;;5028634;28;20021;-67
2021/08/29 01:53:50;;;;;;;4.82;3.20;;;15.00;99.90;;;;;;5028432;28;20021;-67
2021/08/29 01:56:15;;;;;;;4.68;2.67;;;15.00;99.90;;;;;;5028377;28;20025;-65
2021/08/29 01:58:41;;;;;;;6.72;2.72;;;15.00;99.90;;;;;;5028760;28;20090;-67
2021/08/29 02:01:11;;;;;;;6.72;3.63;;;15.00;99.90;;;;;;5029092;28;20395;-67
2021/08/29 02:03:40;;;;;;;5.77;3.73;;;15.00;99.90;;;;;;5029539;28;20033;-67
2021/08/29 02:06:17;;;;;;;5.05;2.88;;;15.00;99.90;;;;;;5034181;28;20411;-67
2021/08/29 02:08:52;;;;;;;6.13;3.40;;;15.00;99.90;;;;;;5028242;28;20038;-66
2021/08/29 02:11:20;;;;;;;7.93;3.00;;;15.00;99.90;;;;;;5034155;28;20026;-66
2021/08/29 02:13:50;;;;;;;6.90;3.70;;;15.00;99.90;;;;;;5029357;28;20021;-66
2021/08/29 02:16:20;;;;;;;5.50;3.35;;;15.00;99.90;;;;;;5028632;28;20056;-66
2021/08/29 02:18:50;;;;;;;4.45;2.95;;;15.00;99.90;;;;;;5029130;28;20063;-67
2021/08/29 02:21:17;;;;;;;6.80;3.70;;;15.00;99.90;;;;;;5029037;28;20029;-67
2021/08/29 02:23:45;;;;;;;6.57;3.40;;;15.00;99.90;;;;;;5027616;28;20048;-67
2021/08/29 02:26:12;;;;;;;5.30;3.53;;;14.90;99.90;;;;;;5029226;28;20053;-66
2021/08/29 02:28:38;;;;;;;6.80;3.50;;;14.90;99.90;;;;;;5028015;28;20056;-67
2021/08/29 02:31:05;;;;;;;6.28;3.22;;;15.00;99.90;;;;;;5035597;28;20123;-67
2021/08/29 02:33:30;;;;;;;5.22;3.65;;;15.00;99.90;;;;;;5028608;28;20030;-67
2021/08/29 02:35:58;;;;;;;4.60;3.45;;;14.90;99.90;;;;;;5027688;28;20045;-67
2021/08/29 02:38:24;;;;;;;6.78;2.90;;;15.00;99.90;;;;;;5027986;28;20053;-67
2021/08/29 02:40:53;;;;;;;4.32;3.17;;;15.00;99.90;;;;;;5029471;28;20458;-67
2021/08/29 02:43:20;;;;;;;6.38;3.67;;;15.00;99.90;;;;;;5027100;28;20040;-66
2021/08/29 02:45:46;;;;;;;5.05;3.25;;;15.00;99.90;;;;;;5030934;28;20037;-66
2021/08/29 02:48:12;;;;;;;5.50;3.55;;;15.00;99.90;;;;;;5028905;28;20526;-67
2021/08/29 02:50:40;;;;;;;6.07;3.10;;;15.00;99.90;;;;;;5029889;28;20081;-67
2021/08/29 02:53:05;;;;;;;6.93;3.58;;;15.00;99.90;;;;;;5028772;28;20028;-67
2021/08/29 02:55:31;;;;;;;5.65;3.05;;;14.90;99.90;;;;;;5027770;28;20029;-65
2021/08/29 02:58:04;;;;;;;4.32;2.70;;;15.00;99.90;;;;;;5030374;28;20052;-67
2021/08/29 03:00:30;;;;;;;4.93;2.80;;;15.00;99.90;;;;;;5028274;28;20071;-67
2021/08/29 03:02:57;;;;;;;5.65;2.63;;;15.00;99.90;;;;;;5030045;28;20105;-67
2021/08/29 03:05:24;;;;;;;6.28;3.10;;;15.00;99.90;;;;;;5029506;28;20108;-68
2021/08/29 03:07:50;;;;;;;4.57;2.67;;;15.00;99.90;;;;;;5027856;28;20088;-66
2021/08/29 03:10:17;;;;;;;3.72;2.60;;;15.00;99.90;;;;;;5028605;28;20044;-67
2021/08/29 03:12:44;;;;;;;4.32;2.83;;;15.00;99.90;;;;;;5026508;28;20039;-66
2021/08/29 03:15:11;;;;;;;3.40;2.40;;;15.00;99.90;;;;;;5011155;28;20077;-66
2021/08/29 03:17:37;;;;;;;4.03;2.80;;;15.00;99.90;;;;;;4993999;28;20025;-67
2021/08/29 03:20:07;;;;;;;4.50;3.05;;;15.00;99.90;;;;;;5028680;28;20030;-67
2021/08/29 03:22:34;;;;;;;4.63;2.70;;;15.00;99.90;;;;;;5011387;28;20028;-67
2021/08/29 03:25:00;;;;;;;4.05;2.28;;;14.90;99.90;;;;;;5010172;28;20636;-67
2021/08/29 03:27:26;;;;;;;3.88;2.40;;;14.90;99.90;;;;;;5027365;28;20043;-67
2021/08/29 03:29:52;;;;;;;4.47;2.55;;;14.90;99.90;;;;;;5028056;28;20697;-66
2021/08/29 03:32:19;;;;;;;6.00;2.28;;;14.90;99.90;;;;;;5028520;28;20042;-67
2021/08/29 03:34:47;;;;;;;5.97;2.67;;;14.90;99.90;;;;;;5029486;28;20022;-67
2021/08/29 03:37:13;;;;;;;3.83;2.60;;;14.90;99.90;;;;;;5010832;28;20444;-67
2021/08/29 03:39:40;;;;;;;5.20;2.85;;;15.00;99.90;;;;;;5027761;28;20300;-67
2021/08/29 03:42:08;;;;;;;4.85;2.85;;;14.90;99.90;;;;;;5026545;28;20595;-67
2021/08/29 03:44:34;;;;;;;5.20;2.65;;;14.90;99.90;;;;;;5010305;28;20029;-67
2021/08/29 03:46:59;;;;;;;5.28;2.72;;;14.90;99.90;;;;;;5026566;28;20032;-66
2021/08/29 03:49:25;;;;;;;3.63;2.47;;;14.90;99.90;;;;;;5026895;28;20471;-66
2021/08/29 03:51:53;;;;;;;4.13;2.70;;;14.90;99.90;;;;;;5027644;28;20195;-66
2021/08/29 03:54:19;;;;;;;3.28;2.40;;;14.90;99.90;;;;;;5027333;28;20041;-65
2021/08/29 03:56:45;;;;;;;3.75;2.42;;;14.90;99.90;;;;;;5027798;28;20045;-66
2021/08/29 03:59:11;;;;;;;4.20;2.40;;;14.90;99.90;;;;;;5026299;28;20026;-67
2021/08/29 04:01:37;;;;;;;3.45;2.45;;;14.90;99.90;;;;;;5025799;28;20041;-67
2021/08/29 04:04:03;;;;;;;4.55;2.50;;;14.90;99.90;;;;;;5009057;28;20033;-67
2021/08/29 04:06:32;;;;;;;4.82;3.25;;;14.90;99.90;;;;;;5027880;28;20211;-67
2021/08/29 04:09:02;;;;;;;3.63;2.42;;;14.90;99.90;;;;;;5026846;28;20476;-66
2021/08/29 04:11:29;;;;;;;4.13;2.60;;;14.90;99.90;;;;;;5007845;28;20508;-66
2021/08/29 04:13:56;;;;;;;8.30;2.58;;;14.90;99.90;;;;;;5027047;28;20323;-66
2021/08/29 04:16:23;;;;;;;3.50;2.60;;;14.90;99.90;;;;;;5027260;28;20444;-67
2021/08/29 04:18:49;;;;;;;4.38;2.80;;;14.90;99.90;;;;;;5025823;28;20029;-66
2021/08/29 04:21:19;;;;;;;4.47;3.08;;;14.90;99.90;;;;;;5028851;28;20399;-67
2021/08/29 04:23:45;;;;;;;4.55;2.50;;;14.80;99.90;;;;;;5010128;28;20038;-67
2021/08/29 04:26:11;;;;;;;6.47;3.03;;;14.90;99.90;;;;;;5028170;28;20021;-66
2021/08/29 04:28:37;;;;;;;4.35;2.60;;;14.90;99.90;;;;;;5027084;28;20116;-67
2021/08/29 04:31:17;;;;;;;4.13;2.63;;;14.90;99.90;;;;;;5027689;28;20044;-66
2021/08/29 04:33:44;;;;;;;5.55;3.30;;;14.90;99.90;;;;;;5028704;28;20033;-67
2021/08/29 04:36:10;;;;;;;5.10;2.67;;;14.90;99.90;;;;;;5026043;28;20039;-66
2021/08/29 04:38:37;;;;;;;3.78;2.97;;;14.90;99.90;;;;;;5026642;28;20033;-66
2021/08/29 04:41:03;;;;;;;4.68;2.90;;;14.90;99.90;;;;;;5027498;28;20503;-68
2021/08/29 04:43:29;;;;;;;4.57;3.38;;;14.90;99.90;;;;;;5025898;28;20076;-66
2021/08/29 04:45:54;;;;;;;4.85;2.92;;;14.90;99.90;;;;;;5026447;28;20061;-66
2021/08/29 04:48:20;;;;;;;4.07;3.00;;;14.90;99.90;;;;;;5025857;28;20045;-67
2021/08/29 04:50:46;;;;;;;3.70;3.00;;;14.80;99.90;;;;;;5009464;28;20032;-66
2021/08/29 04:53:12;;;;;;;4.60;2.80;;;14.80;99.90;;;;;;5025568;28;20036;-66
2021/08/29 04:55:37;;;;;;;5.97;3.10;;;14.80;99.90;;;;;;5026647;28;20061;-67
2021/08/29 04:58:03;;;;;;;4.22;2.63;;;14.90;99.90;;;;;;5027328;28;20407;-67
2021/08/29 05:00:29;;;;;;;3.83;2.60;;;14.90;99.90;;;;;;5007295;28;20135;-66
2021/08/29 05:02:54;;;;;;;5.28;2.92;;;14.90;99.90;;;;;;5026717;28;20057;-67
2021/08/29 05:05:20;;;;;;;6.18;2.92;;;14.90;99.90;;;;;;5009493;28;20041;-67
2021/08/29 05:07:46;;;;;;;6.90;3.30;;;14.80;99.90;;;;;;5025660;28;20037;-67
2021/08/29 05:10:12;;;;;;;3.35;2.55;;;14.90;99.90;;;;;;5009834;28;20435;-67
2021/08/29 05:12:37;;;;;;;4.20;2.85;;;14.90;99.90;;;;;;5026257;28;20032;-66
2021/08/29 05:15:04;;;;;;;4.00;3.05;;;14.90;99.90;;;;;;5026922;28;20018;-66
2021/08/29 05:17:30;;;;;;;3.63;2.70;;;14.90;99.90;;;;;;5026339;28;20041;-66
2021/08/29 05:19:56;;;;;;;5.13;2.50;;;14.90;99.90;;;;;;5026681;28;20025;-67
2021/08/29 05:22:21;;;;;;;2.88;2.42;;;14.90;99.90;;;;;;5028836;28;20025;-67
2021/08/29 05:24:47;;;;;;;4.70;2.92;;;14.90;99.90;;;;;;5029029;28;20450;-67
2021/08/29 05:27:13;;;;;;;3.33;2.83;;;14.90;99.90;;;;;;5029185;28;20029;-67
2021/08/29 05:29:39;;;;;;;4.65;2.70;;;14.90;99.90;;;;;;5029343;28;20097;-66
2021/08/29 05:32:06;;;;;;;4.63;2.78;;;14.90;99.90;;;;;;5030208;28;20021;-67
2021/08/29 05:34:31;;;;;;;4.35;2.80;;;14.90;99.90;;;;;;5030753;28;20039;-66
2021/08/29 05:36:57;;;;;;;4.60;2.60;;;15.00;99.90;;;;;;5028810;28;20029;-67
2021/08/29 05:39:22;;;;;;;3.13;2.63;;;15.00;99.90;;;;;;5028330;28;20398;-67
2021/08/29 05:41:48;;;;;;;2.83;2.13;;;15.00;99.90;;;;;;5030417;28;20530;-66
2021/08/29 05:44:14;;;;;;;4.13;2.50;;;15.00;99.90;;;;;;5028938;28;20033;-67
2021/08/29 05:46:40;;;;;;;3.60;2.42;;;15.00;99.90;;;;;;5030686;28;20391;-67
2021/08/29 05:49:05;;;;;;;3.58;2.70;;;15.10;99.90;;;;;;5013303;28;20021;-67
2021/08/29 05:51:31;;;;;;;3.22;2.88;;;15.00;99.90;;;;;;5029762;28;20017;-66
2021/08/29 05:53:57;;;;;;;3.63;2.75;;;15.10;99.90;;;;;;5030614;28;20047;-66
2021/08/29 05:56:22;;;;;;;3.75;2.97;;;15.10;99.90;;;;;;5028783;28;20033;-67
2021/08/29 05:58:48;;;;;;;3.30;2.92;;;15.00;99.90;;;;;;5029688;28;20507;-68
2021/08/29 06:01:15;;;;;;;3.67;2.40;;;15.00;99.90;;;;;;5028048;28;20033;-66
2021/08/29 06:03:42;;;;;;;4.47;2.67;;;15.10;99.90;;;;;;5030203;28;20402;-67
2021/08/29 06:06:08;;;;;;;4.22;2.78;;;15.10;99.90;;;;;;5033005;28;20033;-67
2021/08/29 06:08:33;;;;;;;3.13;2.38;;;15.10;99.90;;;;;;5031483;28;20518;-67
2021/08/29 06:10:59;;;;;;;3.70;2.47;;;15.10;99.90;;;;;;5033551;28;20112;-67
2021/08/29 06:13:25;;;;;;;3.08;2.30;;;15.10;99.90;;;;;;5031868;28;20127;-67
2021/08/29 06:15:51;;;;;;;2.45;2.25;;;15.10;99.90;;;;;;5032580;28;20056;-67
2021/08/29 06:18:17;;;;;;;2.30;1.90;;;15.10;99.90;;;;;;5032326;28;20068;-68
2021/08/29 06:20:43;;;;;;;2.78;2.30;;;15.20;99.90;;;;;;5030578;28;20047;-67
2021/08/29 06:23:09;;;;;;;3.30;2.33;;;15.20;99.90;;;;;;5038426;28;20060;-68
2021/08/29 06:25:35;;;;;;;2.88;2.15;;;15.20;99.90;;;;;;5038140;28;20033;-68
2021/08/29 06:28:02;;;;;;;2.90;1.90;;;15.20;99.90;;;;;;5013615;28;20036;-68
2021/08/29 06:30:27;;;;;;;2.58;2.20;;;15.30;99.90;;;;;;5013194;28;20025;-67
2021/08/29 06:32:53;;;;;;;2.28;1.88;;;15.30;99.90;;;;;;5011283;28;20047;-66
2021/08/29 06:35:19;;;;;;;3.20;2.15;;;15.30;99.90;;;;;;5031016;28;20029;-67
2021/08/29 06:37:44;;;;;;;2.97;2.42;;;15.40;99.90;;;;;;5014177;28;20447;-68
2021/08/29 06:40:10;;;;;;;4.57;2.42;;;15.30;99.90;;;;;;5030008;28;20040;-66
2021/08/29 06:42:36;;;;;;;4.18;2.45;;;15.30;99.90;;;;;;5035633;28;20442;-67
2021/08/29 06:45:02;;;;;;;3.17;1.73;;;15.30;99.90;;;;;;5029214;28;20032;-67
2021/08/29 06:47:28;;;;;;;3.55;2.05;;;15.40;99.90;;;;;;5028604;28;20049;-68
2021/08/29 06:49:53;;;;;;;3.47;2.08;;;15.40;99.90;;;;;;5030285;28;20944;-68
2021/08/29 06:52:19;;;;;;;3.70;2.55;;;15.30;99.90;;;;;;5013582;28;20037;-67
2021/08/29 06:54:45;;;;;;;2.78;2.10;;;15.40;99.90;;;;;;5031067;28;20057;-68
2021/08/29 06:57:10;;;;;;;3.22;1.80;;;15.40;99.90;;;;;;5029671;28;20034;-68
2021/08/29 06:59:36;;;;;;;4.60;2.05;;;15.40;99.90;;;;;;5032135;28;20033;-67
2021/08/29 07:02:02;;;;;;;2.53;1.73;;;15.40;99.90;;;;;;5036202;28;20060;-68
2021/08/29 07:04:28;;;;;;;2.50;2.17;;;15.50;99.90;;;;;;5027568;28;20133;-67
2021/08/29 07:06:53;;;;;;;2.20;1.90;;;15.50;99.90;;;;;;4996969;28;20124;-68
2021/08/29 07:09:19;;;;;;;2.83;1.90;;;15.50;99.90;;;;;;5030180;28;20038;-67
2021/08/29 07:11:45;;;;;;;2.25;1.67;;;15.60;99.90;;;;;;5012766;28;20438;-67
2021/08/29 07:14:10;;;;;;;2.63;1.95;;;15.60;99.90;;;;;;5029787;28;20029;-68
2021/08/29 07:16:36;;;;;;;2.53;1.70;;;15.60;99.90;;;;;;5012044;28;20033;-68
2021/08/29 07:19:02;;;;;;;2.08;1.75;;;15.70;99.90;;;;;;5030926;28;20270;-68
2021/08/29 07:21:28;;;;;;;2.70;1.67;;;15.70;99.90;;;;;;5011351;28;20396;-67
2021/08/29 07:23:53;;;;;;;2.65;1.52;;;15.80;99.90;;;;;;5029494;28;20059;-67
2021/08/29 07:26:19;;;;;;;1.42;1.10;;;15.80;99.90;;;;;;5030848;28;20055;-68
2021/08/29 07:28:45;;;;;;;1.70;1.42;;;15.80;99.90;;;;;;5029687;28;20560;-67
2021/08/29 07:31:11;;;;;;;4.07;1.63;;;15.90;99.90;;;;;;5029908;28;20017;-67
2021/08/29 07:33:37;;;;;;;1.90;1.50;;;15.90;99.90;;;;;;4994314;28;20112;-67
2021/08/29 07:36:04;;;;;;;2.42;1.42;;;15.90;99.90;;;;;;5032791;28;20471;-67
2021/08/29 07:38:30;;;;;;;2.13;1.35;;;15.90;99.90;;;;;;5018713;28;20294;-66
2021/08/29 07:40:56;;;;;;;2.50;1.30;;;16.00;99.90;;;;;;5028888;28;20022;-66
2021/08/29 07:43:22;;;;;;;1.88;1.33;;;16.00;99.90;;;;;;5011676;28;20459;-68
2021/08/29 07:45:47;;;;;;;4.57;1.55;;;16.00;99.90;;;;;;5029261;28;20037;-68
2021/08/29 07:48:13;;;;;;;2.00;1.60;;;16.10;99.90;;;;;;5030053;28;20028;-66
2021/08/29 07:50:39;;;;;;;1.65;1.38;;;16.00;99.90;;;;;;5030481;28;20036;-67
2021/08/29 07:53:04;;;;;;;2.10;1.73;;;16.00;99.90;;;;;;5026503;28;20017;-67
2021/08/29 07:55:30;;;;;;;1.45;1.20;;;16.00;99.90;;;;;;5011762;28;20061;-67
2021/08/29 07:57:56;;;;;;;2.03;1.35;;;16.00;99.90;;;;;;5013571;28;20459;-67
2021/08/29 08:00:22;;;;;;;1.25;1.05;;;16.10;99.90;;;;;;5025124;28;20033;-67
2021/08/29 08:02:47;;;;;;;1.63;1.00;;;16.20;99.90;;;;;;5030462;28;20048;-67
2021/08/29 08:05:13;;;;;;;1.52;1.30;;;16.20;99.90;;;;;;5028982;28;20021;-67
2021/08/29 08:07:39;;;;;;;3.63;3.25;;;16.20;99.90;;;;;;5027507;28;20029;-66
2021/08/29 08:10:06;;;;;;;1.90;1.65;;;16.20;99.90;;;;;;5010478;28;20134;-67
2021/08/29 08:12:31;;;;;;;2.58;1.67;;;16.20;99.90;;;;;;5028170;28;20033;-66
2021/08/29 08:14:57;;;;;;;2.40;1.50;;;16.20;99.90;;;;;;5011092;28;20022;-66
2021/08/29 08:17:23;;;;;;;2.03;1.40;;;16.20;99.90;;;;;;5027008;28;20086;-67
2021/08/29 08:19:49;;;;;;;2.35;1.48;;;16.20;99.90;;;;;;5010325;28;20483;-67
2021/08/29 08:22:15;;;;;;;1.27;1.10;;;16.20;99.90;;;;;;5030638;28;20034;-67
2021/08/29 08:24:40;;;;;;;1.85;1.45;;;16.30;99.90;;;;;;5029200;28;20033;-67
2021/08/29 08:27:06;;;;;;;2.47;1.50;;;16.30;99.90;;;;;;5029089;28;20033;-67
2021/08/29 08:29:32;;;;;;;2.28;1.25;;;16.30;99.90;;;;;;5030274;28;20083;-66
2021/08/29 08:31:57;;;;;;;2.03;1.40;;;16.30;99.90;;;;;;5030989;28;20043;-67
2021/08/29 08:34:23;;;;;;;1.77;1.20;;;16.40;99.90;;;;;;5030050;28;20120;-66
2021/08/29 08:36:49;;;;;;;2.25;1.80;;;16.40;99.90;;;;;;5027081;28;20083;-68
2021/08/29 08:39:15;;;;;;;1.88;1.45;;;16.50;99.90;;;;;;5011262;28;20036;-67
2021/08/29 08:41:40;;;;;;;1.52;1.23;;;16.50;99.90;;;;;;5029533;28;20042;-67
2021/08/29 08:44:07;;;;;;;2.92;1.30;;;16.60;99.90;;;;;;5011239;28;20032;-67
2021/08/29 08:46:33;;;;;;;3.05;1.98;;;16.60;99.90;;;;;;5026413;28;20045;-67
2021/08/29 08:49:02;;;;;;;2.05;1.40;;;16.70;99.90;;;;;;4994584;28;20025;-67
2021/08/29 08:51:36;;;;;;;1.67;1.25;;;16.70;99.90;;;;;;5027650;28;20026;-67
2021/08/29 08:54:02;;;;;;;1.58;1.33;;;16.70;99.90;;;;;;5012084;28;20028;-67
2021/08/29 08:56:29;;;;;;;1.95;1.23;;;16.70;99.90;;;;;;5035730;28;20036;-67
2021/08/29 08:58:59;;;;;;;3.63;1.38;;;16.70;99.90;;;;;;5031498;28;20511;-67
2021/08/29 09:01:25;;;;;;;1.95;1.50;;;16.80;99.90;;;;;;5013492;28;20087;-67
2021/08/29 09:03:52;;;;;;;2.40;1.73;;;16.80;99.90;;;;;;5033760;28;20430;-67
2021/08/29 09:06:18;;;;;;;1.20;1.10;;;16.80;99.90;;;;;;5031327;28;20037;-67
2021/08/29 09:08:44;;;;;;;1.63;1.10;;;16.80;99.90;;;;;;5029812;28;20041;-67
2021/08/29 09:11:10;;;;;;;1.83;1.00;;;16.80;99.90;;;;;;5030745;28;20022;-68
2021/08/29 09:13:49;;;;;;;1.90;1.10;;;16.80;99.90;;;;;;5032755;28;20026;-68
2021/08/29 09:16:20;;;;;;;1.58;1.13;;;16.90;99.90;;;;;;5033321;28;20116;-68
2021/08/29 09:18:50;;;;;;;2.67;1.10;;;16.90;99.90;;;;;;5031825;28;20139;-68
2021/08/29 09:21:25;;;;;;;1.17;0.80;;;17.10;99.90;;;;;;5031569;28;20044;-67
2021/08/29 09:23:53;;;;;;;1.73;1.13;;;17.20;99.90;;;;;;5031746;28;20045;-67
2021/08/29 09:26:20;;;;;;;1.27;0.98;;;17.30;99.90;;;;;;5032420;28;20377;-67
2021/08/29 09:28:47;;;;;;;1.45;1.00;;;17.30;99.90;;;;;;5014553;28;20048;-68
2021/08/29 09:31:18;;;;;;;1.65;0.90;;;17.40;99.90;;;;;;5032313;28;20064;-67
2021/08/29 09:34:00;;;;;;;2.78;0.75;;;17.30;99.90;;;;;;5031307;28;20113;-67
2021/08/29 09:36:31;;;;;;;1.33;0.68;;;17.40;99.90;;;;;;5031146;28;20441;-67
2021/08/29 09:39:13;;;;;;;1.70;1.40;;;17.30;99.90;;;;;;5030925;28;20026;-68
2021/08/29 09:41:39;;;;;;;2.17;1.80;;;17.30;99.90;;;;;;5028844;28;20045;-68
2021/08/29 09:44:31;;;;;;;1.05;0.95;;;17.30;99.90;;;;;;5014559;28;20048;-68
2021/08/29 09:47:04;;;;;;;1.00;0.88;;;17.30;99.90;;;;;;5031311;28;20036;-67
2021/08/29 09:49:35;;;;;;;1.63;0.73;;;17.30;99.90;;;;;;5029351;28;20047;-67
2021/08/29 09:52:03;;;;;;;1.50;0.90;;;17.30;99.90;;;;;;5032673;28;20464;-68
2021/08/29 09:54:42;;;;;;;0.93;0.77;;;17.30;99.90;;;;;;5014017;28;20049;-68
2021/08/29 09:57:10;;;;;;;1.25;1.08;;;17.30;99.90;;;;;;5031186;28;20097;-67
2021/08/29 09:59:47;;;;;;;1.35;1.10;;;17.40;99.90;;;;;;5012278;28;20128;-68
2021/08/29 10:02:27;;;;;;;0.80;0.77;;;17.30;99.90;;;;;;5028239;28;20037;-67
2021/08/29 10:05:13;;;;;;;1.30;0.80;;;17.30;99.90;;;;;;5027537;28;20056;-67
2021/08/29 10:07:56;;;;;;;1.10;0.90;;;17.40;99.90;;;;;;5011198;28;20288;-67
2021/08/29 10:10:27;;;;;;;0.85;0.80;;;17.40;99.90;;;;;;5011394;28;20026;-67
2021/08/29 10:12:53;;;;;;;;;;;17.40;99.90;;;;;;5013861;28;20493;-67
2021/08/29 10:15:20;;;;;;;0.70;0.68;;;17.30;99.90;;;;;;5029435;28;20330;-68
2021/08/29 10:17:47;;;;;;;1.52;0.95;;;17.30;99.90;;;;;;5030782;28;20029;-68
2021/08/29 10:20:24;;;;;;;1.13;0.80;;;17.20;99.90;;;;;;5031422;28;20079;-67
2021/08/29 10:22:51;;;;;;;0.93;0.80;;;17.30;99.90;;;;;;5030881;28;20037;-68
2021/08/29 10:25:18;;;;;;;2.20;1.10;;;17.20;99.90;;;;;;5028884;28;20041;-67
2021/08/29 10:28:14;;;;;;;1.38;0.90;;;17.40;99.90;;;;;;5011455;28;20026;-67
2021/08/29 10:30:42;;;;;;;1.65;1.40;;;17.30;99.90;;;;;;5020315;28;20087;-68
2021/08/29 10:33:12;;;;;;;1.95;1.30;;;17.30;99.90;;;;;;5028614;28;20515;-68
2021/08/29 10:35:39;;;;;;;1.40;1.10;;;17.30;99.90;;;;;;5029745;28;20030;-67
2021/08/29 10:38:05;;;;;;;2.05;1.10;;;17.30;99.90;;;;;;5030386;28;20033;-70
2021/08/29 10:40:31;;;;;;;2.67;1.65;;;17.20;99.90;;;;;;5030785;28;20030;-66
2021/08/29 10:42:58;;;;;;;1.88;1.38;;;17.20;99.90;;;;;;5031038;28;20404;-68
2021/08/29 10:45:25;;;;;;;4.05;2.47;;;17.30;99.90;;;;;;5028971;28;20472;-67
2021/08/29 10:47:52;;;;;;;4.35;2.40;;;17.30;99.90;;;;;;5034550;28;20048;-67
2021/08/29 10:50:19;;;;;;;5.65;3.67;;;17.30;99.90;;;;;;5013058;28;20119;-68
2021/08/29 10:52:45;;;;;;;4.57;3.35;;;17.30;99.90;;;;;;5039142;28;20033;-67
2021/08/29 10:55:14;;;;;;;4.90;3.78;;;17.30;99.90;;;;;;5028592;28;20048;-67
2021/08/29 10:57:42;;;;;;;4.72;3.83;;;17.30;99.90;;;;;;5030165;28;20061;-68
2021/08/29 11:00:28;;;;;;;16.98;11.55;;;17.40;99.90;;;;;;5030773;28;20042;-67
2021/08/29 11:02:54;;;;;;;7.13;5.20;;;17.50;99.90;;;;;;5026785;28;20040;-68
2021/08/29 11:05:29;;;;;;;10.85;4.97;;;17.60;99.90;;;;;;5028917;28;20310;-68
2021/08/29 11:07:56;;;;;;;8.57;4.90;;;17.70;99.90;;;;;;5009785;28;20117;-67
2021/08/29 11:10:37;;;;;;;5.10;3.40;;;17.80;99.90;;;;;;5029902;28;20026;-67
2021/08/29 11:13:28;;;;;;;24.73;13.93;;;17.80;99.90;;;;;;5030195;28;20029;-67
2021/08/29 11:16:14;;;;;;;7.13;5.03;;;17.80;99.90;;;;;;5009956;28;20021;-68
2021/08/29 11:18:59;;;;;;;7.80;4.25;;;17.70;99.90;;;;;;5029160;28;20467;-67
2021/08/29 11:21:26;;;;;;;8.88;3.53;;;17.70;99.90;;;;;;5011582;28;20033;-67
2021/08/29 11:23:52;;;;;;;7.18;3.90;;;17.70;99.90;;;;;;5029648;28;20044;-67
2021/08/29 11:26:35;;;;;;;5.95;3.95;;;17.80;99.90;;;;;;5027876;28;20034;-68
2021/08/29 11:29:02;;;;;;;6.25;3.88;;;17.90;99.90;;;;;;5029315;28;20040;-67
2021/08/29 11:31:53;;;;;;;6.53;3.67;;;18.00;99.90;;;;;;5029687;28;20064;-68
2021/08/29 11:34:19;;;;;;;5.70;3.55;;;18.10;99.90;;;;;;5033077;28;20052;-68
2021/08/29 11:36:45;;;;;;;5.55;3.97;;;18.20;99.90;;;;;;5010727;28;20029;-68
2021/08/29 11:39:32;;;;;;;6.78;4.13;;;18.20;99.90;;;;;;5029744;28;20503;-68
2021/08/29 11:42:17;;;;;;;5.82;3.63;;;18.10;99.90;;;;;;5011725;28;20127;-67
2021/08/29 11:44:45;;;;;;;8.10;4.70;;;18.10;99.90;;;;;;5027553;28;20045;-67
2021/08/29 11:47:12;;;;;;;5.85;3.70;;;18.00;99.90;;;;;;5028085;28;20030;-68
2021/08/29 11:49:38;;;;;;;6.38;3.55;;;17.90;99.90;;;;;;5029555;28;20030;-67
2021/08/29 11:52:05;;;;;;;5.45;3.50;;;17.90;99.90;;;;;;5026877;28;20029;-68
2021/08/29 11:54:31;;;;;;;5.07;3.88;;;17.90;99.90;;;;;;5029395;28;20379;-68
2021/08/29 11:56:57;;;;;;;5.07;3.72;;;18.00;99.90;;;;;;5030409;28;20040;-68
2021/08/29 11:59:29;;;;;;;7.03;3.97;;;18.00;99.90;;;;;;5028131;28;20403;-68
2021/08/29 12:01:59;;;;;;;7.03;3.75;;;18.10;99.90;;;;;;5011673;28;20025;-67
2021/08/29 12:04:25;;;;;;;5.97;4.32;;;18.00;99.90;;;;;;5027865;28;20475;-68
2021/08/29 12:07:05;;;;;;;4.88;3.58;;;18.00;99.90;;;;;;5009705;28;20498;-68
2021/08/29 12:09:42;;;;;;;4.53;2.90;;;17.90;99.90;;;;;;5028423;28;20124;-67
2021/08/29 12:12:18;;;;;;;2.90;2.45;;;17.90;99.90;;;;;;5028947;28;20065;-68
2021/08/29 12:14:45;;;;;;;5.80;2.75;;;17.90;99.90;;;;;;5025886;28;20396;-67
2021/08/29 12:17:12;;;;;;;4.00;2.83;;;17.90;99.90;;;;;;5025785;28;20029;-67
2021/08/29 12:19:40;;;;;;;6.53;4.40;;;17.90;99.90;;;;;;5028582;28;20104;-68
2021/08/29 12:22:09;;;;;;;4.97;3.50;;;17.80;99.90;;;;;;5035533;28;20033;-68
2021/08/29 12:24:40;;;;;;;4.95;3.20;;;17.70;99.90;;;;;;5026349;28;20500;-67
2021/08/29 12:27:14;;;;;;;4.70;3.38;;;17.60;99.90;;;;;;5028311;28;20455;-68
2021/08/29 12:29:48;;;;;;;5.55;3.53;;;17.50;99.90;;;;;;5010024;28;20069;-67
2021/08/29 12:32:17;;;;;;;4.75;3.42;;;17.50;99.90;;;;;;5010576;28;20025;-67
2021/08/29 12:34:49;;;;;;;4.47;3.28;;;17.50;99.90;;;;;;5027616;28;20027;-66
2021/08/29 12:37:15;;;;;;;5.85;4.03;;;17.50;99.90;;;;;;5011170;28;20402;-68
2021/08/29 12:39:41;;;;;;;6.32;3.80;;;17.50;99.90;;;;;;5027406;28;20589;-67
2021/08/29 12:42:20;;;;;;;5.80;3.70;;;17.50;99.90;;;;;;5028676;28;20112;-67
2021/08/29 12:44:48;;;;;;;5.43;4.35;;;17.60;99.90;;;;;;5025824;28;20492;-68
2021/08/29 12:47:14;;;;;;;6.20;3.92;;;17.60;99.90;;;;;;5033950;28;20040;-67
2021/08/29 12:49:40;;;;;;;12.65;9.90;;;17.60;99.90;;;;;;5029058;28;20018;-67
2021/08/29 12:52:08;;;;;;;109.63;98.18;;;17.70;99.90;;;;;;4993976;28;20615;-67